This is the latest recevied weather packets stored in our database for station/object SP2NBH-2. If no packets are shown the sender has not sent any weather packets the latest 10 day(s).
| Time | Temp. | Humidity | Pressure | Rain* | Wind** | Luminosity | Snow |
|---|---|---|---|---|---|---|---|
| 1777441660 | 7.78° C | 61% | 1030.9 hPa | - | - | - | - |
| 1777441626 | 7.78° C | 61% | 1030.9 hPa | - | - | - | - |
| 1777440726 | 7.78° C | 61% | 1030.8 hPa | - | - | - | - |
| 1777439826 | 7.22° C | 63% | 1030.7 hPa | - | - | - | - |
| 1777438926 | 6.67° C | 64% | 1030.7 hPa | - | - | - | - |
| 1777438026 | 6.11° C | 63% | 1030.5 hPa | - | - | - | - |
| 1777437697 | 6.11° C | 65% | 1030.4 hPa | - | - | - | - |
| 1777437158 | 6.11° C | 65% | 1030.4 hPa | - | - | - | - |
| 1777437126 | 6.11° C | 65% | 1030.4 hPa | - | - | - | - |
| 1777435390 | 5° C | 66% | 1030.2 hPa | - | - | - | - |
| 1777434427 | 3.89° C | 67% | 1030.1 hPa | - | - | - | - |
| 1777433560 | 3.33° C | 65% | 1030.1 hPa | - | - | - | - |
| 1777433527 | 3.33° C | 65% | 1030.1 hPa | - | - | - | - |
| 1777432700 | 2.78° C | 65% | 1030.1 hPa | - | - | - | - |
| 1777432627 | 2.78° C | 65% | 1030.1 hPa | - | - | - | - |
| 1777429027 | 2.22° C | 67% | 1029.8 hPa | - | - | - | - |
| 1777428127 | 2.22° C | 68% | 1029.8 hPa | - | - | - | - |
| 1777427227 | 2.22° C | 68% | 1029.9 hPa | - | - | - | - |
| 1777425427 | 2.22° C | 70% | 1029.8 hPa | - | - | - | - |
| 1777410218 | 3.89° C | 69% | 1029.4 hPa | - | - | - | - |
| 1777398551 | 6.11° C | 58% | 1028.6 hPa | - | - | - | - |
| 1777394917 | 7.78° C | 52% | 1028.4 hPa | - | - | - | - |
| 1777394017 | 9.44° C | 49% | 1028.4 hPa | - | - | - | - |
| 1777393117 | 13.33° C | 39% | 1028.4 hPa | - | - | - | - |
| 1777385951 | 12.78° C | 44% | 1028.3 hPa | - | - | - | - |
* Rain since midnight (hover to see other rain measurements)
** Current wind speed in m/s (hover to see current wind gust speed)